createdAt,value
2022-09-13T00:01:36.237Z,100.00
2022-09-13T00:04:39.017Z,100.00
2022-09-13T00:07:41.730Z,100.00
2022-09-13T00:10:45.592Z,100.00
2022-09-13T00:13:49.708Z,100.00
2022-09-13T00:16:52.418Z,100.00
2022-09-13T00:19:55.176Z,100.00
2022-09-13T00:22:57.922Z,100.00
2022-09-13T00:26:06.020Z,100.00
2022-09-13T00:29:10.130Z,100.00
2022-09-13T00:32:13.242Z,100.00
2022-09-13T00:35:16.134Z,100.00
2022-09-13T00:38:18.960Z,100.00
2022-09-13T00:41:22.765Z,100.00
2022-09-13T00:44:55.216Z,100.00
2022-09-13T00:48:01.882Z,100.00
2022-09-13T00:51:07.507Z,100.00
2022-09-13T00:54:11.099Z,100.00
2022-09-13T00:57:15.850Z,100.00
2022-09-13T01:00:20.812Z,100.00
2022-09-13T01:03:26.847Z,100.00
2022-09-13T01:06:33.211Z,100.00
2022-09-13T01:09:40.258Z,100.00
2022-09-13T01:12:50.100Z,100.00
2022-09-13T01:15:54.341Z,100.00
2022-09-13T01:18:57.074Z,100.00
2022-09-13T01:22:48.503Z,100.00
2022-09-13T01:26:27.419Z,100.00
2022-09-13T01:29:56.958Z,100.00
2022-09-13T01:33:17.902Z,100.00
2022-09-13T01:36:37.059Z,100.00
2022-09-13T01:39:58.139Z,100.00
2022-09-13T01:43:20.744Z,100.00
2022-09-13T01:46:28.154Z,100.00
2022-09-13T01:49:39.140Z,100.00
2022-09-13T01:52:50.488Z,100.00
2022-09-13T01:56:00.242Z,100.00
2022-09-13T01:59:08.707Z,100.00
2022-09-13T02:02:17.729Z,100.00
2022-09-13T02:05:28.845Z,100.00
2022-09-13T02:08:39.653Z,100.00
2022-09-13T02:11:46.409Z,100.00
2022-09-13T02:14:55.485Z,100.00
2022-09-13T02:18:05.942Z,100.00
2022-09-13T02:21:14.063Z,100.00
2022-09-13T02:24:20.448Z,100.00
2022-09-13T02:27:28.117Z,100.00
2022-09-13T02:30:34.918Z,100.00
2022-09-13T02:33:41.986Z,100.00
2022-09-13T02:36:49.716Z,100.00
2022-09-13T02:39:58.324Z,100.00
2022-09-13T02:43:05.748Z,100.00
2022-09-13T02:46:21.330Z,100.00
2022-09-13T02:49:54.019Z,100.00
2022-09-13T02:53:05.375Z,100.00
2022-09-13T02:56:19.851Z,100.00
2022-09-13T02:59:24.834Z,100.00
2022-09-13T03:02:32.843Z,100.00
2022-09-13T03:05:35.672Z,100.00
2022-09-13T03:08:40.300Z,100.00
2022-09-13T03:11:57.559Z,100.00
2022-09-13T03:15:12.587Z,100.00
2022-09-13T03:18:29.710Z,100.00
2022-09-13T03:21:50.227Z,100.00
2022-09-13T03:25:04.436Z,100.00
2022-09-13T03:28:21.501Z,100.00
2022-09-13T03:31:33.910Z,100.00
2022-09-13T03:34:45.116Z,100.00
2022-09-13T03:37:55.561Z,100.00
2022-09-13T03:41:06.490Z,100.00
2022-09-13T03:44:14.157Z,100.00
2022-09-13T03:47:19.549Z,100.00
2022-09-13T03:50:24.156Z,100.00
2022-09-13T03:53:30.239Z,100.00
2022-09-13T03:56:34.412Z,100.00
2022-09-13T03:59:38.852Z,100.00
2022-09-13T04:02:42.130Z,100.00
2022-09-13T04:05:44.890Z,100.00
2022-09-13T04:08:47.895Z,100.00
2022-09-13T04:11:52.096Z,100.00
2022-09-13T04:14:54.952Z,100.00
2022-09-13T04:17:57.693Z,100.00
2022-09-13T04:21:02.379Z,100.00
2022-09-13T04:24:05.471Z,100.00
2022-09-13T04:27:09.969Z,100.00
2022-09-13T04:30:13.781Z,100.00
2022-09-13T04:33:17.359Z,100.00
2022-09-13T04:36:21.319Z,100.00
2022-09-13T04:39:24.353Z,100.00
2022-09-13T04:42:28.461Z,100.00
2022-09-13T04:45:31.413Z,100.00
2022-09-13T04:48:34.286Z,100.00
2022-09-13T04:51:37.171Z,100.00
2022-09-13T04:54:39.959Z,100.00
2022-09-13T04:57:44.122Z,100.00
2022-09-13T05:00:47.843Z,100.00
2022-09-13T05:03:52.678Z,100.00
2022-09-13T05:06:55.491Z,100.00
2022-09-13T05:09:58.292Z,100.00
2022-09-13T05:13:02.365Z,100.00
2022-09-13T05:16:07.246Z,100.00
2022-09-13T05:19:11.298Z,100.00
2022-09-13T05:22:14.064Z,100.00
2022-09-13T05:25:17.070Z,100.00
2022-09-13T05:28:21.280Z,100.00
2022-09-13T05:31:26.545Z,100.00
2022-09-13T05:34:29.676Z,100.00
2022-09-13T05:37:32.499Z,100.00
2022-09-13T05:40:35.385Z,100.00
2022-09-13T05:43:39.528Z,100.00
2022-09-13T05:46:43.226Z,100.00
2022-09-13T05:50:08.947Z,100.00
2022-09-13T05:53:09.150Z,100.00
2022-09-13T05:56:16.801Z,100.00
2022-09-13T05:59:21.096Z,100.00
2022-09-13T06:02:23.891Z,100.00
2022-09-13T06:05:29.929Z,100.00
2022-09-13T06:08:35.665Z,100.00
2022-09-13T06:11:38.737Z,100.00
2022-09-13T06:14:43.079Z,100.00
2022-09-13T06:17:47.079Z,100.00
2022-09-13T06:20:50.277Z,100.00
2022-09-13T06:23:54.730Z,100.00
2022-09-13T06:26:57.518Z,100.00
2022-09-13T06:30:01.776Z,100.00
2022-09-13T06:33:04.853Z,100.00
2022-09-13T06:36:09.663Z,100.00
2022-09-13T06:39:12.479Z,100.00
2022-09-13T06:42:15.232Z,100.00
2022-09-13T06:45:19.357Z,100.00
2022-09-13T06:48:22.194Z,100.00
2022-09-13T06:51:26.406Z,100.00
2022-09-13T06:54:29.302Z,100.00
2022-09-13T06:57:32.170Z,100.00
2022-09-13T07:00:36.319Z,100.00
2022-09-13T07:03:40.308Z,100.00
2022-09-13T07:06:44.968Z,100.00
2022-09-13T07:09:47.740Z,100.00
2022-09-13T07:12:50.820Z,100.00
2022-09-13T07:15:55.055Z,100.00
2022-09-13T07:18:59.852Z,100.00
2022-09-13T07:22:02.644Z,100.00
2022-09-13T07:25:06.325Z,100.00
2022-09-13T07:28:09.145Z,100.00
2022-09-13T07:31:14.928Z,100.00
2022-09-13T07:34:20.483Z,100.00
2022-09-13T07:37:23.258Z,100.00
2022-09-13T07:40:26.163Z,100.00
2022-09-13T07:43:29.693Z,100.00
2022-09-13T07:47:01.970Z,100.00
2022-09-13T07:50:04.943Z,100.00
2022-09-13T07:53:07.668Z,100.00
2022-09-13T07:56:12.520Z,100.00
2022-09-13T07:59:17.011Z,100.00
2022-09-13T08:02:21.200Z,100.00
2022-09-13T08:05:24.054Z,100.00
2022-09-13T08:08:27.136Z,100.00
2022-09-13T08:11:32.052Z,100.00
2022-09-13T08:14:35.030Z,100.00
2022-09-13T08:17:39.167Z,100.00
2022-09-13T08:20:42.125Z,100.00
2022-09-13T08:23:45.232Z,100.00
2022-09-13T08:26:49.078Z,100.00
2022-09-13T08:29:51.943Z,100.00
2022-09-13T08:32:56.201Z,100.00
2022-09-13T08:35:59.159Z,100.00
2022-09-13T08:39:02.306Z,100.00
2022-09-13T08:42:16.126Z,100.00
2022-09-13T08:45:19.318Z,100.00
2022-09-13T08:48:29.628Z,100.00
2022-09-13T08:51:36.117Z,100.00
2022-09-13T08:54:38.985Z,100.00
2022-09-13T08:57:46.979Z,100.00
2022-09-13T09:00:55.803Z,100.00
2022-09-13T09:04:05.742Z,100.00
2022-09-13T09:07:14.210Z,100.00
2022-09-13T09:10:20.093Z,100.00
2022-09-13T09:13:30.311Z,100.00
2022-09-13T09:16:38.252Z,100.00
2022-09-13T09:19:47.881Z,100.00
2022-09-13T09:22:52.456Z,100.00
2022-09-13T09:25:59.132Z,100.00
2022-09-13T09:29:06.567Z,100.00
2022-09-13T09:32:20.722Z,100.00
2022-09-13T09:35:35.382Z,100.00
2022-09-13T09:38:43.939Z,100.00
2022-09-13T09:41:47.010Z,100.00
2022-09-13T09:44:53.279Z,100.00
2022-09-13T09:47:57.807Z,100.00
2022-09-13T09:51:06.287Z,100.00
2022-09-13T09:54:39.147Z,100.00
2022-09-13T09:57:53.207Z,100.00
2022-09-13T10:00:58.987Z,100.00
2022-09-13T10:04:09.463Z,100.00
2022-09-13T10:07:25.407Z,100.00
2022-09-13T10:10:36.762Z,100.00
2022-09-13T10:13:39.733Z,100.00
2022-09-13T10:16:42.968Z,100.00
2022-09-13T10:19:58.783Z,100.00
2022-09-13T10:23:19.331Z,100.00
2022-09-13T10:26:24.356Z,100.00
2022-09-13T10:29:28.910Z,100.00
2022-09-13T10:32:32.169Z,100.00
2022-09-13T10:35:34.982Z,100.00
2022-09-13T10:38:45.981Z,100.00
2022-09-13T10:41:55.887Z,100.00
2022-09-13T10:45:01.781Z,100.00
2022-09-13T10:48:11.969Z,100.00
2022-09-13T10:51:29.742Z,100.00
2022-09-13T10:54:33.851Z,100.00
2022-09-13T10:57:38.423Z,100.00
2022-09-13T11:01:07.839Z,100.00
2022-09-13T11:04:46.192Z,100.00
2022-09-13T11:08:12.872Z,100.00
2022-09-13T11:11:25.219Z,100.00
2022-09-13T11:14:46.097Z,100.00
2022-09-13T11:18:21.095Z,100.00
2022-09-13T11:21:36.540Z,100.00
2022-09-13T11:24:57.817Z,100.00
2022-09-13T11:28:10.179Z,100.00
2022-09-13T11:31:25.893Z,100.00
2022-09-13T11:34:43.339Z,100.00
2022-09-13T11:37:55.386Z,100.00
2022-09-13T11:41:05.311Z,100.00
2022-09-13T11:44:36.738Z,100.00
2022-09-13T11:47:58.604Z,100.00
2022-09-13T11:51:09.961Z,100.00
2022-09-13T11:54:25.179Z,100.00
2022-09-13T11:57:33.862Z,100.00
2022-09-13T12:00:42.934Z,100.00
2022-09-13T12:03:52.339Z,100.00
2022-09-13T12:06:59.844Z,100.00
2022-09-13T12:10:09.335Z,100.00
2022-09-13T12:13:17.745Z,100.00
2022-09-13T12:16:27.638Z,100.00
2022-09-13T12:19:41.962Z,100.00
2022-09-13T12:22:46.659Z,100.00
2022-09-13T12:25:56.073Z,100.00
2022-09-13T12:29:04.391Z,100.00
2022-09-13T12:32:11.352Z,100.00
2022-09-13T12:35:23.028Z,100.00
2022-09-13T12:38:50.686Z,100.00
2022-09-13T12:42:18.684Z,100.00
2022-09-13T12:45:54.787Z,100.00
2022-09-13T12:49:27.420Z,100.00
2022-09-13T12:52:37.781Z,100.00
2022-09-13T12:56:09.525Z,100.00
2022-09-13T12:59:26.648Z,100.00
2022-09-13T13:02:35.275Z,100.00
2022-09-13T13:05:42.599Z,100.00
2022-09-13T13:08:52.706Z,100.00
2022-09-13T13:11:55.930Z,100.00
2022-09-13T13:14:59.815Z,100.00
2022-09-13T13:18:23.570Z,100.00
2022-09-13T13:21:31.635Z,100.00
2022-09-13T13:24:47.357Z,100.00
2022-09-13T13:27:55.092Z,100.00
2022-09-13T13:30:59.108Z,100.00
2022-09-13T13:34:04.062Z,100.00
2022-09-13T13:37:29.550Z,100.00
2022-09-13T13:40:32.328Z,100.00
2022-09-13T13:43:36.444Z,100.00
2022-09-13T13:46:40.166Z,100.00
2022-09-13T13:49:46.645Z,100.00
2022-09-13T13:52:56.762Z,100.00
2022-09-13T13:56:16.668Z,100.00
2022-09-13T13:59:26.174Z,100.00
2022-09-13T14:02:37.806Z,100.00
2022-09-13T14:05:47.868Z,100.00
2022-09-13T14:09:09.596Z,100.00
2022-09-13T14:12:22.575Z,100.00
2022-09-13T14:15:36.879Z,100.00
2022-09-13T14:19:06.601Z,100.00
2022-09-13T14:22:16.242Z,100.00
2022-09-13T14:25:26.637Z,100.00
2022-09-13T14:28:29.824Z,100.00
2022-09-13T14:31:32.721Z,100.00
2022-09-13T14:34:38.679Z,100.00
2022-09-13T14:37:41.662Z,100.00
2022-09-13T14:40:49.309Z,100.00
2022-09-13T14:43:52.101Z,100.00
2022-09-13T14:47:02.771Z,100.00
2022-09-13T14:50:09.295Z,97.44
2022-09-13T14:53:17.610Z,94.76
2022-09-13T14:56:31.224Z,96.49
2022-09-13T14:59:37.711Z,98.10
2022-09-13T15:02:41.650Z,96.32
2022-09-13T15:05:53.146Z,94.02
2022-09-13T15:08:59.569Z,96.25
2022-09-13T15:12:03.941Z,94.41
2022-09-13T15:15:41.225Z,93.10
2022-09-13T15:18:43.987Z,92.69
2022-09-13T15:21:46.820Z,92.50
2022-09-13T15:24:52.220Z,88.00
2022-09-13T15:27:57.837Z,86.73
2022-09-13T15:31:03.672Z,88.21
2022-09-13T15:34:13.787Z,90.16
2022-09-13T15:37:16.903Z,87.69
2022-09-13T15:40:22.092Z,84.03
2022-09-13T15:43:26.430Z,81.80
2022-09-13T15:46:29.951Z,85.19
2022-09-13T15:49:33.793Z,82.55
2022-09-13T15:52:36.629Z,82.65
2022-09-13T15:55:40.787Z,82.61
2022-09-13T15:58:45.064Z,84.40
2022-09-13T16:01:49.456Z,81.37
2022-09-13T16:04:53.126Z,81.62
2022-09-13T16:07:58.883Z,79.34
2022-09-13T16:11:01.741Z,82.60
2022-09-13T16:14:06.879Z,81.84
2022-09-13T16:17:14.084Z,85.95
2022-09-13T16:20:17.375Z,86.39
2022-09-13T16:23:20.252Z,87.04
2022-09-13T16:26:23.509Z,86.00
2022-09-13T16:29:27.837Z,87.19
2022-09-13T16:32:30.629Z,89.70
2022-09-13T16:35:33.729Z,89.49
2022-09-13T16:38:36.455Z,91.31
2022-09-13T16:41:40.055Z,94.25
2022-09-13T16:44:44.801Z,99.10
2022-09-13T16:47:48.015Z,100.00
2022-09-13T16:50:51.112Z,100.00
2022-09-13T16:53:55.107Z,100.00
2022-09-13T16:56:58.926Z,100.00
2022-09-13T17:00:07.312Z,100.00
2022-09-13T17:03:10.147Z,100.00
2022-09-13T17:06:14.729Z,100.00
2022-09-13T17:09:17.981Z,100.00
2022-09-13T17:12:20.926Z,100.00
2022-09-13T17:15:25.155Z,100.00
2022-09-13T17:18:28.427Z,100.00
2022-09-13T17:21:33.755Z,100.00
2022-09-13T17:24:37.234Z,100.00
2022-09-13T17:27:40.130Z,100.00
2022-09-13T17:30:46.215Z,100.00
2022-09-13T17:33:50.050Z,100.00
2022-09-13T17:36:52.873Z,100.00
2022-09-13T17:39:56.007Z,100.00
2022-09-13T17:42:58.929Z,100.00
2022-09-13T17:46:06.555Z,100.00
2022-09-13T17:49:09.659Z,100.00
2022-09-13T17:52:12.679Z,100.00
2022-09-13T17:55:16.152Z,100.00
2022-09-13T17:58:19.037Z,100.00
2022-09-13T18:01:23.330Z,100.00
2022-09-13T18:04:26.474Z,100.00
2022-09-13T18:07:29.420Z,100.00
2022-09-13T18:10:57.963Z,100.00
2022-09-13T18:13:55.371Z,100.00
2022-09-13T18:17:00.154Z,100.00
2022-09-13T18:20:03.959Z,100.00
2022-09-13T18:23:08.097Z,100.00
2022-09-13T18:26:14.201Z,100.00
2022-09-13T18:29:18.770Z,100.00
2022-09-13T18:32:22.934Z,100.00
2022-09-13T18:35:26.175Z,100.00
2022-09-13T18:38:30.151Z,100.00
2022-09-13T18:41:35.845Z,100.00
2022-09-13T18:44:38.756Z,100.00
2022-09-13T18:47:42.936Z,100.00
2022-09-13T18:50:45.751Z,100.00
2022-09-13T18:53:49.341Z,100.00
2022-09-13T18:56:54.610Z,100.00
2022-09-13T18:59:59.501Z,100.00
2022-09-13T19:03:12.215Z,100.00
2022-09-13T19:06:18.567Z,100.00
2022-09-13T19:09:22.867Z,100.00
2022-09-13T19:12:25.773Z,100.00
2022-09-13T19:15:28.651Z,100.00
2022-09-13T19:18:33.094Z,100.00
2022-09-13T19:21:36.296Z,100.00
2022-09-13T19:24:39.069Z,100.00
2022-09-13T19:27:42.153Z,100.00
2022-09-13T19:30:49.532Z,100.00
2022-09-13T19:33:55.343Z,100.00
2022-09-13T19:36:58.557Z,100.00
2022-09-13T19:40:01.541Z,100.00
2022-09-13T19:43:05.209Z,100.00
2022-09-13T19:46:10.174Z,100.00
2022-09-13T19:49:16.020Z,100.00
2022-09-13T19:52:18.995Z,100.00
2022-09-13T19:55:22.000Z,100.00
2022-09-13T19:58:24.788Z,100.00
2022-09-13T20:01:29.182Z,100.00
2022-09-13T20:04:33.550Z,100.00
2022-09-13T20:07:36.419Z,100.00
2022-09-13T20:10:39.801Z,100.00
2022-09-13T20:13:43.296Z,100.00
2022-09-13T20:16:46.741Z,100.00
2022-09-13T20:19:50.945Z,100.00
2022-09-13T20:22:53.990Z,100.00
2022-09-13T20:25:56.795Z,100.00
2022-09-13T20:29:02.615Z,100.00
2022-09-13T20:32:05.396Z,100.00
2022-09-13T20:35:10.971Z,100.00
2022-09-13T20:38:13.755Z,100.00
2022-09-13T20:41:18.532Z,100.00
2022-09-13T20:44:21.442Z,100.00
2022-09-13T20:47:24.362Z,100.00
2022-09-13T20:50:29.021Z,100.00
2022-09-13T20:53:33.205Z,100.00
2022-09-13T20:56:36.268Z,100.00
2022-09-13T20:59:40.085Z,100.00
2022-09-13T21:02:43.140Z,100.00
2022-09-13T21:05:47.432Z,100.00
2022-09-13T21:08:50.794Z,100.00
2022-09-13T21:11:53.567Z,100.00
2022-09-13T21:14:56.715Z,100.00
2022-09-13T21:17:59.865Z,100.00
2022-09-13T21:21:05.215Z,100.00
2022-09-13T21:24:09.854Z,100.00
2022-09-13T21:27:12.793Z,100.00
2022-09-13T21:30:15.847Z,100.00
2022-09-13T21:33:18.640Z,100.00
2022-09-13T21:36:22.857Z,100.00
2022-09-13T21:39:25.593Z,100.00
2022-09-13T21:42:28.709Z,100.00
2022-09-13T21:45:31.508Z,100.00
2022-09-13T21:48:36.179Z,100.00
2022-09-13T21:51:42.155Z,100.00
2022-09-13T21:54:44.958Z,100.00
2022-09-13T21:57:47.782Z,100.00
2022-09-13T22:00:51.047Z,100.00
2022-09-13T22:03:54.458Z,100.00
2022-09-13T22:06:58.618Z,100.00
2022-09-13T22:10:01.483Z,100.00
2022-09-13T22:13:04.305Z,100.00
2022-09-13T22:16:09.139Z,100.00
2022-09-13T22:19:14.418Z,100.00
2022-09-13T22:22:18.542Z,100.00
2022-09-13T22:25:22.115Z,100.00
2022-09-13T22:28:24.876Z,100.00
2022-09-13T22:31:29.256Z,100.00
2022-09-13T22:34:34.900Z,100.00
2022-09-13T22:37:38.983Z,100.00
2022-09-13T22:40:41.741Z,100.00
2022-09-13T22:43:45.005Z,100.00
2022-09-13T22:46:48.142Z,100.00
2022-09-13T22:49:50.906Z,100.00
2022-09-13T22:52:55.187Z,100.00
2022-09-13T22:56:04.022Z,100.00
2022-09-13T22:59:08.700Z,100.00
2022-09-13T23:02:11.539Z,100.00
2022-09-13T23:05:14.768Z,100.00
2022-09-13T23:08:18.966Z,100.00
2022-09-13T23:11:23.742Z,100.00
2022-09-13T23:14:26.481Z,100.00
2022-09-13T23:17:29.275Z,100.00
2022-09-13T23:20:32.302Z,100.00
2022-09-13T23:23:37.010Z,100.00
2022-09-13T23:26:39.964Z,100.00
2022-09-13T23:29:42.732Z,100.00
2022-09-13T23:32:48.346Z,100.00
2022-09-13T23:35:51.513Z,100.00
2022-09-13T23:38:57.798Z,100.00
2022-09-13T23:42:01.389Z,100.00
2022-09-13T23:45:04.311Z,100.00
2022-09-13T23:48:07.095Z,100.00
2022-09-13T23:51:12.084Z,100.00
2022-09-13T23:54:16.835Z,100.00
2022-09-13T23:57:20.283Z,100.00
